Rico, CO

12:50 PM MDT on May 22, 2017 (GMT -0600)
MEDSC2 | | Change Station

Elev 9997 ft 37.79 °N, 108.02 °W | Updated 22 days ago

Partly Cloudy
Partly Cloudy
27.0 °F
Feels Like 27 °F
N
-
Wind Variable Wind from North

Today
High -- | Low -- °F
--% Chance of Precip.
Yesterday
High -- | Low -- °F
Precip. -- in
Pressure 30.33 in
Visibility 10.0 miles
Clouds Scattered Clouds 6000 ft
Windchill 27 °F
Dew Point Not available.
Humidity Not available.
Rainfall 0.04 in
Snow Depth Not available.
5:56 AM 8:21 PM
Waning Crescent, 13% visible
METAR KTEX 221835Z AUTO 00000KT 10SM SCT060 12/M04 A3033 RMK AO2 T01201043
Pressure 30.33 in
Visibility 10.0 miles
Clouds Scattered Clouds 6000 ft
Windchill 27 °F
Dew Point Not available.
Humidity Not available.
Rainfall 0.04 in
Snow Depth Not available.
5:56 AM 8:21 PM
Waning Crescent, 13% visible
METAR KTEX 221835Z AUTO 00000KT 10SM SCT060 12/M04 A3033 RMK AO2 T01201043

Get Severe Weather Alerts

Thanks for signing up!

Be on the lookout for a verification email in your inbox.

You'll start receiving the daily forecast at 6 AM.

×

10-Day Weather Forecast

Almanac

Astronomy

May. 22, 2017 Rise Set
Actual Time
Civil Twilight
Nautical Twilight
Astronomical Twilight
Moon
Length of Visible Light
Length of Day
Tomorrow will be .
, % of the Moon is Illuminated

Today's Extremes

State Highs State Lows

Community

WunderPhotos

Category 6

Welcome to Category 6. This is the collective home for Weather Underground's featured writeups by Dr. Jeff Masters (right), Bob Henson (left), Chris Burt, and other regular contributors.

Nearby

Air Quality

  Air Quality AQ Index Pollutant
Not available.

Snow Depth

Station Depth Elevation

Earthquake Activity

City Distance Mag. Time & Date
Minimum magnitude displayed is 2.5.

Coastal Water Temperatures

Place Temperature

Stations

Nearby Weather Stations

Station Location Temp. Windchill Dew Point Humidity Wind Precip. Elev Updated Type
                   

Watches & Warnings

There are currently no watches in effect.